sensor_id;sensor_type;location;lat;lon;timestamp;temperature;humidity
36790;DHT22;22740;52.182;8.780;2023-08-08T00:01:40;12.80;99.90
36790;DHT22;22740;52.182;8.780;2023-08-08T00:07:44;12.70;99.90
36790;DHT22;22740;52.182;8.780;2023-08-08T00:13:46;12.70;99.90
36790;DHT22;22740;52.182;8.780;2023-08-08T00:19:47;12.70;99.90
36790;DHT22;22740;52.182;8.780;2023-08-08T00:25:49;12.80;99.90
36790;DHT22;22740;52.182;8.780;2023-08-08T00:31:52;12.80;99.90
36790;DHT22;22740;52.182;8.780;2023-08-08T00:37:54;12.80;99.90
36790;DHT22;22740;52.182;8.780;2023-08-08T00:43:55;12.80;99.90
36790;DHT22;22740;52.182;8.780;2023-08-08T00:49:57;12.70;99.90
36790;DHT22;22740;52.182;8.780;2023-08-08T00:55:59;12.70;99.90
36790;DHT22;22740;52.182;8.780;2023-08-08T01:02:01;12.70;99.90
36790;DHT22;22740;52.182;8.780;2023-08-08T01:08:04;12.70;99.90
36790;DHT22;22740;52.182;8.780;2023-08-08T01:14:06;12.70;99.90
36790;DHT22;22740;52.182;8.780;2023-08-08T01:20:09;12.70;99.90
36790;DHT22;22740;52.182;8.780;2023-08-08T01:26:11;12.70;99.90
36790;DHT22;22740;52.182;8.780;2023-08-08T01:32:13;12.60;99.90
36790;DHT22;22740;52.182;8.780;2023-08-08T01:38:23;12.70;99.90
36790;DHT22;22740;52.182;8.780;2023-08-08T01:44:27;12.70;99.90
36790;DHT22;22740;52.182;8.780;2023-08-08T01:50:30;12.70;99.90
36790;DHT22;22740;52.182;8.780;2023-08-08T01:56:31;12.70;99.90
36790;DHT22;22740;52.182;8.780;2023-08-08T02:02:33;12.80;99.90
36790;DHT22;22740;52.182;8.780;2023-08-08T02:08:37;12.90;99.90
36790;DHT22;22740;52.182;8.780;2023-08-08T02:14:39;12.90;99.90
36790;DHT22;22740;52.182;8.780;2023-08-08T02:20:40;12.90;99.90
36790;DHT22;22740;52.182;8.780;2023-08-08T02:26:42;12.90;99.90
36790;DHT22;22740;52.182;8.780;2023-08-08T02:32:44;13.00;99.90
36790;DHT22;22740;52.182;8.780;2023-08-08T02:38:45;13.00;99.90
36790;DHT22;22740;52.182;8.780;2023-08-08T02:44:47;13.00;99.90
36790;DHT22;22740;52.182;8.780;2023-08-08T02:50:49;13.00;99.90
36790;DHT22;22740;52.182;8.780;2023-08-08T02:56:50;13.00;99.90
36790;DHT22;22740;52.182;8.780;2023-08-08T03:02:52;13.00;99.90
36790;DHT22;22740;52.182;8.780;2023-08-08T03:08:54;13.00;99.90
36790;DHT22;22740;52.182;8.780;2023-08-08T03:14:56;13.00;99.90
36790;DHT22;22740;52.182;8.780;2023-08-08T03:20:58;12.90;99.90
36790;DHT22;22740;52.182;8.780;2023-08-08T03:27:00;12.90;99.90
36790;DHT22;22740;52.182;8.780;2023-08-08T03:33:01;13.00;99.90
36790;DHT22;22740;52.182;8.780;2023-08-08T03:39:03;13.00;99.90
36790;DHT22;22740;52.182;8.780;2023-08-08T03:45:05;13.00;99.90
36790;DHT22;22740;52.182;8.780;2023-08-08T03:51:07;12.80;99.90
36790;DHT22;22740;52.182;8.780;2023-08-08T03:57:09;12.90;99.90
36790;DHT22;22740;52.182;8.780;2023-08-08T04:03:10;12.90;99.90
36790;DHT22;22740;52.182;8.780;2023-08-08T04:09:15;12.80;99.90
36790;DHT22;22740;52.182;8.780;2023-08-08T04:15:17;12.80;99.90
36790;DHT22;22740;52.182;8.780;2023-08-08T04:21:19;12.80;99.90
36790;DHT22;22740;52.182;8.780;2023-08-08T04:27:20;12.80;99.90
36790;DHT22;22740;52.182;8.780;2023-08-08T04:33:22;12.90;99.90
36790;DHT22;22740;52.182;8.780;2023-08-08T04:39:24;12.90;99.90
36790;DHT22;22740;52.182;8.780;2023-08-08T04:45:25;12.90;99.90
36790;DHT22;22740;52.182;8.780;2023-08-08T04:51:28;12.90;99.90
36790;DHT22;22740;52.182;8.780;2023-08-08T04:57:30;12.90;99.90
36790;DHT22;22740;52.182;8.780;2023-08-08T05:03:32;12.90;99.90
36790;DHT22;22740;52.182;8.780;2023-08-08T05:09:34;13.00;99.90
36790;DHT22;22740;52.182;8.780;2023-08-08T05:15:35;13.00;99.90
36790;DHT22;22740;52.182;8.780;2023-08-08T05:21:37;13.00;99.90
36790;DHT22;22740;52.182;8.780;2023-08-08T05:27:39;13.10;99.90
36790;DHT22;22740;52.182;8.780;2023-08-08T05:33:41;13.10;99.90
36790;DHT22;22740;52.182;8.780;2023-08-08T05:39:43;13.10;99.90
36790;DHT22;22740;52.182;8.780;2023-08-08T05:45:45;13.20;99.90
36790;DHT22;22740;52.182;8.780;2023-08-08T05:51:47;13.30;99.90
36790;DHT22;22740;52.182;8.780;2023-08-08T05:57:49;13.40;99.90
36790;DHT22;22740;52.182;8.780;2023-08-08T06:03:50;13.50;99.90
36790;DHT22;22740;52.182;8.780;2023-08-08T06:09:52;13.50;99.90
36790;DHT22;22740;52.182;8.780;2023-08-08T06:15:54;13.70;99.90
36790;DHT22;22740;52.182;8.780;2023-08-08T06:21:56;13.80;99.90
36790;DHT22;22740;52.182;8.780;2023-08-08T06:27:57;13.90;99.90
36790;DHT22;22740;52.182;8.780;2023-08-08T06:33:59;14.00;99.90
36790;DHT22;22740;52.182;8.780;2023-08-08T06:40:01;14.30;99.90
36790;DHT22;22740;52.182;8.780;2023-08-08T06:46:03;14.50;99.90
36790;DHT22;22740;52.182;8.780;2023-08-08T06:52:05;14.60;99.90
36790;DHT22;22740;52.182;8.780;2023-08-08T06:58:07;14.70;99.90
36790;DHT22;22740;52.182;8.780;2023-08-08T07:04:08;14.80;99.90
36790;DHT22;22740;52.182;8.780;2023-08-08T07:10:10;14.80;99.90
36790;DHT22;22740;52.182;8.780;2023-08-08T07:16:14;15.00;99.90
36790;DHT22;22740;52.182;8.780;2023-08-08T07:22:16;15.30;99.90
36790;DHT22;22740;52.182;8.780;2023-08-08T07:28:17;15.30;99.90
36790;DHT22;22740;52.182;8.780;2023-08-08T07:34:19;15.30;99.90
36790;DHT22;22740;52.182;8.780;2023-08-08T07:40:21;15.30;99.90
36790;DHT22;22740;52.182;8.780;2023-08-08T07:46:23;15.40;99.90
36790;DHT22;22740;52.182;8.780;2023-08-08T07:52:25;15.40;99.90
36790;DHT22;22740;52.182;8.780;2023-08-08T07:58:27;15.30;99.90
36790;DHT22;22740;52.182;8.780;2023-08-08T08:04:28;15.10;99.90
36790;DHT22;22740;52.182;8.780;2023-08-08T08:10:30;15.10;99.90
36790;DHT22;22740;52.182;8.780;2023-08-08T08:16:32;15.40;99.90
36790;DHT22;22740;52.182;8.780;2023-08-08T08:22:34;15.80;99.90
36790;DHT22;22740;52.182;8.780;2023-08-08T08:28:36;15.30;99.90
36790;DHT22;22740;52.182;8.780;2023-08-08T08:34:38;14.90;99.90
36790;DHT22;22740;52.182;8.780;2023-08-08T08:40:40;14.70;99.90
36790;DHT22;22740;52.182;8.780;2023-08-08T08:46:42;14.70;99.90
36790;DHT22;22740;52.182;8.780;2023-08-08T08:52:46;15.00;99.90
36790;DHT22;22740;52.182;8.780;2023-08-08T08:58:48;14.90;99.90
36790;DHT22;22740;52.182;8.780;2023-08-08T09:04:49;14.70;99.90
36790;DHT22;22740;52.182;8.780;2023-08-08T09:10:52;14.50;99.90
36790;DHT22;22740;52.182;8.780;2023-08-08T09:16:54;14.70;99.90
36790;DHT22;22740;52.182;8.780;2023-08-08T09:22:56;15.30;99.90
36790;DHT22;22740;52.182;8.780;2023-08-08T09:28:58;16.10;99.90
36790;DHT22;22740;52.182;8.780;2023-08-08T09:35:00;16.60;99.90
36790;DHT22;22740;52.182;8.780;2023-08-08T09:41:02;16.80;99.90
36790;DHT22;22740;52.182;8.780;2023-08-08T09:47:04;16.70;99.90
36790;DHT22;22740;52.182;8.780;2023-08-08T09:53:05;16.60;99.90
36790;DHT22;22740;52.182;8.780;2023-08-08T09:59:09;16.20;99.90
36790;DHT22;22740;52.182;8.780;2023-08-08T10:05:10;16.00;99.90
36790;DHT22;22740;52.182;8.780;2023-08-08T10:11:14;16.30;99.90
36790;DHT22;22740;52.182;8.780;2023-08-08T10:17:16;16.60;99.90
36790;DHT22;22740;52.182;8.780;2023-08-08T10:23:18;17.40;99.90
36790;DHT22;22740;52.182;8.780;2023-08-08T10:29:20;17.80;99.90
36790;DHT22;22740;52.182;8.780;2023-08-08T10:35:22;18.00;99.90
36790;DHT22;22740;52.182;8.780;2023-08-08T10:41:26;17.90;99.90
36790;DHT22;22740;52.182;8.780;2023-08-08T10:47:32;18.10;99.90
36790;DHT22;22740;52.182;8.780;2023-08-08T10:53:34;17.70;99.90
36790;DHT22;22740;52.182;8.780;2023-08-08T10:59:37;17.30;99.90
36790;DHT22;22740;52.182;8.780;2023-08-08T11:05:39;17.00;99.90
36790;DHT22;22740;52.182;8.780;2023-08-08T11:11:46;16.90;99.90
36790;DHT22;22740;52.182;8.780;2023-08-08T11:17:48;16.90;99.90
36790;DHT22;22740;52.182;8.780;2023-08-08T11:23:50;17.10;99.90
36790;DHT22;22740;52.182;8.780;2023-08-08T11:29:51;17.60;99.90
36790;DHT22;22740;52.182;8.780;2023-08-08T11:35:54;17.70;99.90
36790;DHT22;22740;52.182;8.780;2023-08-08T11:41:55;17.40;99.90
36790;DHT22;22740;52.182;8.780;2023-08-08T11:48:00;17.60;99.90
36790;DHT22;22740;52.182;8.780;2023-08-08T11:54:03;18.20;99.90
36790;DHT22;22740;52.182;8.780;2023-08-08T12:00:08;18.40;99.90
36790;DHT22;22740;52.182;8.780;2023-08-08T12:06:16;18.10;99.90
36790;DHT22;22740;52.182;8.780;2023-08-08T12:12:19;17.50;99.90
36790;DHT22;22740;52.182;8.780;2023-08-08T12:18:21;17.10;99.90
36790;DHT22;22740;52.182;8.780;2023-08-08T12:24:23;16.30;99.90
36790;DHT22;22740;52.182;8.780;2023-08-08T12:30:25;16.20;99.90
36790;DHT22;22740;52.182;8.780;2023-08-08T12:36:27;16.80;99.90
36790;DHT22;22740;52.182;8.780;2023-08-08T12:42:29;17.20;99.90
36790;DHT22;22740;52.182;8.780;2023-08-08T12:48:30;17.90;99.90
36790;DHT22;22740;52.182;8.780;2023-08-08T12:54:32;18.60;99.90
36790;DHT22;22740;52.182;8.780;2023-08-08T13:00:34;18.80;99.90
36790;DHT22;22740;52.182;8.780;2023-08-08T13:06:36;18.90;99.90
36790;DHT22;22740;52.182;8.780;2023-08-08T13:12:38;18.90;99.90
36790;DHT22;22740;52.182;8.780;2023-08-08T13:18:40;18.80;99.90
36790;DHT22;22740;52.182;8.780;2023-08-08T13:24:41;18.50;99.90
36790;DHT22;22740;52.182;8.780;2023-08-08T13:30:43;18.10;99.90
36790;DHT22;22740;52.182;8.780;2023-08-08T13:36:45;17.60;99.90
36790;DHT22;22740;52.182;8.780;2023-08-08T13:42:47;17.30;99.90
36790;DHT22;22740;52.182;8.780;2023-08-08T13:48:49;17.50;99.90
36790;DHT22;22740;52.182;8.780;2023-08-08T13:54:51;17.70;99.90
36790;DHT22;22740;52.182;8.780;2023-08-08T14:00:54;17.70;99.90
36790;DHT22;22740;52.182;8.780;2023-08-08T14:06:56;17.90;99.90
36790;DHT22;22740;52.182;8.780;2023-08-08T14:12:57;17.90;99.90
36790;DHT22;22740;52.182;8.780;2023-08-08T14:18:59;17.90;99.90
36790;DHT22;22740;52.182;8.780;2023-08-08T14:25:01;17.80;99.90
36790;DHT22;22740;52.182;8.780;2023-08-08T14:31:02;17.70;99.90
36790;DHT22;22740;52.182;8.780;2023-08-08T14:37:07;17.50;99.90
36790;DHT22;22740;52.182;8.780;2023-08-08T14:43:09;16.00;99.90
36790;DHT22;22740;52.182;8.780;2023-08-08T14:49:14;15.50;99.90
36790;DHT22;22740;52.182;8.780;2023-08-08T14:55:15;15.70;99.90
36790;DHT22;22740;52.182;8.780;2023-08-08T15:01:17;16.40;99.90
36790;DHT22;22740;52.182;8.780;2023-08-08T15:07:19;16.40;99.90
36790;DHT22;22740;52.182;8.780;2023-08-08T15:13:21;16.40;99.90
36790;DHT22;22740;52.182;8.780;2023-08-08T15:19:23;16.30;99.90
36790;DHT22;22740;52.182;8.780;2023-08-08T15:25:24;16.20;99.90
36790;DHT22;22740;52.182;8.780;2023-08-08T15:31:26;16.30;99.90
36790;DHT22;22740;52.182;8.780;2023-08-08T15:37:28;16.40;99.90
36790;DHT22;22740;52.182;8.780;2023-08-08T15:43:30;16.40;99.90
36790;DHT22;22740;52.182;8.780;2023-08-08T15:49:32;16.20;99.90
36790;DHT22;22740;52.182;8.780;2023-08-08T15:55:34;16.80;99.90
36790;DHT22;22740;52.182;8.780;2023-08-08T16:01:36;17.70;99.90
36790;DHT22;22740;52.182;8.780;2023-08-08T16:07:37;17.70;99.90
36790;DHT22;22740;52.182;8.780;2023-08-08T16:13:40;17.90;99.90
36790;DHT22;22740;52.182;8.780;2023-08-08T16:19:48;18.00;99.90
36790;DHT22;22740;52.182;8.780;2023-08-08T16:26:02;17.80;99.90
36790;DHT22;22740;52.182;8.780;2023-08-08T16:32:15;17.80;99.90
36790;DHT22;22740;52.182;8.780;2023-08-08T16:38:30;18.10;99.90
36790;DHT22;22740;52.182;8.780;2023-08-08T16:45:21;18.10;99.90
36790;DHT22;22740;52.182;8.780;2023-08-08T16:51:47;17.60;99.90
36790;DHT22;22740;52.182;8.780;2023-08-08T16:58:10;17.40;99.90
36790;DHT22;22740;52.182;8.780;2023-08-08T17:04:26;15.90;99.90
36790;DHT22;22740;52.182;8.780;2023-08-08T17:10:46;15.10;99.90
36790;DHT22;22740;52.182;8.780;2023-08-08T17:17:05;15.20;99.90
36790;DHT22;22740;52.182;8.780;2023-08-08T17:23:21;15.60;99.90
36790;DHT22;22740;52.182;8.780;2023-08-08T17:29:30;16.00;99.90
36790;DHT22;22740;52.182;8.780;2023-08-08T17:35:40;16.00;99.90
36790;DHT22;22740;52.182;8.780;2023-08-08T17:41:46;16.10;99.90
36790;DHT22;22740;52.182;8.780;2023-08-08T17:48:04;16.30;99.90
36790;DHT22;22740;52.182;8.780;2023-08-08T17:54:17;16.50;99.90
36790;DHT22;22740;52.182;8.780;2023-08-08T18:00:37;16.60;99.90
36790;DHT22;22740;52.182;8.780;2023-08-08T18:06:52;16.50;99.90
36790;DHT22;22740;52.182;8.780;2023-08-08T18:13:06;16.20;99.90
36790;DHT22;22740;52.182;8.780;2023-08-08T18:19:18;16.20;99.90
36790;DHT22;22740;52.182;8.780;2023-08-08T18:25:39;15.90;99.90
36790;DHT22;22740;52.182;8.780;2023-08-08T18:31:58;15.80;99.90
36790;DHT22;22740;52.182;8.780;2023-08-08T18:38:17;15.60;99.90
36790;DHT22;22740;52.182;8.780;2023-08-08T18:44:30;15.50;99.90
36790;DHT22;22740;52.182;8.780;2023-08-08T18:50:48;15.40;99.90
36790;DHT22;22740;52.182;8.780;2023-08-08T18:57:04;15.40;99.90
36790;DHT22;22740;52.182;8.780;2023-08-08T19:03:13;15.20;99.90
36790;DHT22;22740;52.182;8.780;2023-08-08T19:09:18;15.20;99.90
36790;DHT22;22740;52.182;8.780;2023-08-08T19:15:32;15.20;99.90
36790;DHT22;22740;52.182;8.780;2023-08-08T19:21:37;15.10;99.90
36790;DHT22;22740;52.182;8.780;2023-08-08T19:27:43;15.00;99.90
36790;DHT22;22740;52.182;8.780;2023-08-08T19:33:50;15.00;99.90
36790;DHT22;22740;52.182;8.780;2023-08-08T19:40:13;14.90;99.90
36790;DHT22;22740;52.182;8.780;2023-08-08T19:46:35;14.90;99.90
36790;DHT22;22740;52.182;8.780;2023-08-08T19:52:51;14.90;99.90
36790;DHT22;22740;52.182;8.780;2023-08-08T19:59:13;14.90;99.90
36790;DHT22;22740;52.182;8.780;2023-08-08T20:05:34;14.90;99.90
36790;DHT22;22740;52.182;8.780;2023-08-08T20:11:51;14.70;99.90
36790;DHT22;22740;52.182;8.780;2023-08-08T20:18:01;14.40;99.90
36790;DHT22;22740;52.182;8.780;2023-08-08T20:24:14;14.40;99.90
36790;DHT22;22740;52.182;8.780;2023-08-08T20:30:38;14.40;99.90
36790;DHT22;22740;52.182;8.780;2023-08-08T20:36:59;14.30;99.90
36790;DHT22;22740;52.182;8.780;2023-08-08T20:43:09;14.10;99.90
36790;DHT22;22740;52.182;8.780;2023-08-08T20:49:26;14.10;99.90
36790;DHT22;22740;52.182;8.780;2023-08-08T20:55:47;14.00;99.90
36790;DHT22;22740;52.182;8.780;2023-08-08T21:02:09;14.00;99.90
36790;DHT22;22740;52.182;8.780;2023-08-08T21:08:16;14.00;99.90
36790;DHT22;22740;52.182;8.780;2023-08-08T21:14:22;14.10;99.90
36790;DHT22;22740;52.182;8.780;2023-08-08T21:20:31;14.00;99.90
36790;DHT22;22740;52.182;8.780;2023-08-08T21:26:44;14.00;99.90
36790;DHT22;22740;52.182;8.780;2023-08-08T21:33:05;13.90;99.90
36790;DHT22;22740;52.182;8.780;2023-08-08T21:39:20;13.80;99.90
36790;DHT22;22740;52.182;8.780;2023-08-08T21:45:35;13.80;99.90
36790;DHT22;22740;52.182;8.780;2023-08-08T21:52:04;13.70;99.90
36790;DHT22;22740;52.182;8.780;2023-08-08T21:58:15;13.60;99.90
36790;DHT22;22740;52.182;8.780;2023-08-08T22:04:36;13.50;99.90
36790;DHT22;22740;52.182;8.780;2023-08-08T22:11:02;13.40;99.90
36790;DHT22;22740;52.182;8.780;2023-08-08T22:17:33;13.20;99.90
36790;DHT22;22740;52.182;8.780;2023-08-08T22:24:12;13.20;99.90
36790;DHT22;22740;52.182;8.780;2023-08-08T22:30:39;13.20;99.90
36790;DHT22;22740;52.182;8.780;2023-08-08T22:36:56;13.20;99.90
36790;DHT22;22740;52.182;8.780;2023-08-08T22:43:15;13.20;99.90
36790;DHT22;22740;52.182;8.780;2023-08-08T22:49:40;13.10;99.90
36790;DHT22;22740;52.182;8.780;2023-08-08T22:55:56;13.10;99.90
36790;DHT22;22740;52.182;8.780;2023-08-08T23:02:15;13.10;99.90
36790;DHT22;22740;52.182;8.780;2023-08-08T23:08:44;13.10;99.90
36790;DHT22;22740;52.182;8.780;2023-08-08T23:15:03;13.20;99.90
36790;DHT22;22740;52.182;8.780;2023-08-08T23:21:34;13.00;99.90
36790;DHT22;22740;52.182;8.780;2023-08-08T23:27:54;13.00;99.90
36790;DHT22;22740;52.182;8.780;2023-08-08T23:34:05;12.80;99.90
36790;DHT22;22740;52.182;8.780;2023-08-08T23:40:22;12.80;99.90
36790;DHT22;22740;52.182;8.780;2023-08-08T23:46:37;12.80;99.90
36790;DHT22;22740;52.182;8.780;2023-08-08T23:52:53;12.80;99.90
36790;DHT22;22740;52.182;8.780;2023-08-08T23:59:11;12.80;99.90
